createdAt,value
2022-11-30T00:00:58.528Z,101957.34
2022-11-30T00:03:25.841Z,101955.63
2022-11-30T00:05:52.757Z,101953.97
2022-11-30T00:08:19.239Z,101946.19
2022-11-30T00:10:45.889Z,101954.75
2022-11-30T00:13:12.433Z,101966.81
2022-11-30T00:15:39.272Z,101958.19
2022-11-30T00:18:05.800Z,101947.88
2022-11-30T00:20:32.365Z,101952.97
2022-11-30T00:22:58.901Z,101958.16
2022-11-30T00:25:25.521Z,101952.97
2022-11-30T00:27:52.471Z,101949.53
2022-11-30T00:30:19.015Z,101950.41
2022-11-30T00:32:45.478Z,101955.56
2022-11-30T00:35:12.515Z,101954.75
2022-11-30T00:37:39.048Z,101952.16
2022-11-30T00:40:06.343Z,101952.97
2022-11-30T00:42:32.860Z,101955.56
2022-11-30T00:44:59.336Z,101947.81
2022-11-30T00:47:25.769Z,101952.09
2022-11-30T00:49:52.286Z,101954.69
2022-11-30T00:52:18.722Z,101949.50
2022-11-30T00:54:45.946Z,101953.78
2022-11-30T00:57:12.921Z,101951.16
2022-11-30T00:59:39.442Z,101953.78
2022-11-30T01:02:06.054Z,101950.34
2022-11-30T01:04:32.924Z,101952.03
2022-11-30T01:06:59.393Z,101950.31
2022-11-30T01:09:25.841Z,101952.88
2022-11-30T01:11:52.360Z,101952.88
2022-11-30T01:14:18.842Z,101952.88
2022-11-30T01:16:45.307Z,101959.78
2022-11-30T01:19:11.823Z,101958.97
2022-11-30T01:21:38.462Z,101961.56
2022-11-30T01:24:05.452Z,101968.38
2022-11-30T01:26:31.945Z,101963.22
2022-11-30T01:28:58.434Z,101963.25
2022-11-30T01:31:25.435Z,101968.44
2022-11-30T01:33:56.478Z,101964.13
2022-11-30T01:36:26.548Z,101971.88
2022-11-30T01:38:55.562Z,101971.97
2022-11-30T01:41:28.352Z,101968.44
2022-11-30T01:44:19.512Z,101970.19
2022-11-30T01:46:56.079Z,101963.31
2022-11-30T01:49:30.700Z,101970.22
2022-11-30T01:52:11.945Z,101972.88
2022-11-30T01:54:43.637Z,101972.03
2022-11-30T01:57:25.790Z,101973.81
2022-11-30T01:59:54.265Z,101982.47
2022-11-30T02:02:27.002Z,101979.91
2022-11-30T02:04:53.641Z,101976.56
2022-11-30T02:07:20.410Z,101987.75
2022-11-30T02:09:46.940Z,101986.88
2022-11-30T02:13:08.493Z,101988.59
2022-11-30T02:15:53.069Z,101993.75
2022-11-30T02:18:25.609Z,101988.59
2022-11-30T02:21:06.249Z,101989.41
2022-11-30T02:23:47.534Z,101985.06
2022-11-30T02:26:39.927Z,101980.81
2022-11-30T02:29:12.846Z,101989.41
2022-11-30T02:31:49.047Z,101981.69
2022-11-30T02:34:17.830Z,101984.28
2022-11-30T02:36:46.158Z,101977.38
2022-11-30T02:39:12.700Z,101978.31
2022-11-30T02:41:40.590Z,101968.88
2022-11-30T02:44:10.460Z,101974.09
2022-11-30T02:47:02.025Z,101989.53
2022-11-30T02:49:44.218Z,101980.09
2022-11-30T02:52:12.745Z,101984.47
2022-11-30T02:54:39.801Z,101981.91
2022-11-30T02:57:06.714Z,101986.31
2022-11-30T02:59:33.513Z,101985.47
2022-11-30T03:02:00.067Z,101988.06
2022-11-30T03:04:26.541Z,101993.28
2022-11-30T03:06:53.049Z,101989.00
2022-11-30T03:09:19.863Z,101987.28
2022-11-30T03:11:46.628Z,101986.41
2022-11-30T03:14:13.123Z,101987.25
2022-11-30T03:16:39.748Z,101988.09
2022-11-30T03:19:06.348Z,101992.44
2022-11-30T03:21:32.809Z,101985.56
2022-11-30T03:23:59.388Z,101989.81
2022-11-30T03:26:25.917Z,101993.28
2022-11-30T03:28:52.669Z,101990.72
2022-11-30T03:31:19.333Z,101994.97
2022-11-30T03:33:46.090Z,101996.69
2022-11-30T03:36:13.343Z,101987.25
2022-11-30T03:38:40.122Z,101992.41
2022-11-30T03:41:10.062Z,101990.69
2022-11-30T03:43:36.605Z,101988.09
2022-11-30T03:46:04.072Z,101985.56
2022-11-30T03:48:31.601Z,101993.31
2022-11-30T03:50:58.625Z,101988.16
2022-11-30T03:53:26.075Z,101995.91
2022-11-30T03:55:57.100Z,101998.47
2022-11-30T03:58:24.512Z,101999.38
2022-11-30T04:00:58.202Z,101995.03
2022-11-30T04:03:24.675Z,102005.34
2022-11-30T04:05:51.156Z,102006.22
2022-11-30T04:08:17.690Z,102002.78
2022-11-30T04:10:47.278Z,102012.22
2022-11-30T04:13:14.053Z,102011.34
2022-11-30T04:15:40.534Z,102015.69
2022-11-30T04:18:07.081Z,102012.22
2022-11-30T04:20:40.055Z,102012.22
2022-11-30T04:23:07.166Z,102013.91
2022-11-30T04:25:34.091Z,102019.09
2022-11-30T04:28:00.533Z,102027.69
2022-11-30T04:30:26.972Z,102028.56
2022-11-30T04:32:53.802Z,102027.75
2022-11-30T04:35:20.245Z,102031.25
2022-11-30T04:37:46.676Z,102033.00
2022-11-30T04:40:14.106Z,102032.13
2022-11-30T04:42:41.555Z,102032.13
2022-11-30T04:45:08.711Z,102028.63
2022-11-30T04:47:35.139Z,102039.88
2022-11-30T04:50:01.668Z,102041.56
2022-11-30T04:52:28.530Z,102037.28
2022-11-30T04:54:57.107Z,102038.13
2022-11-30T04:57:24.386Z,102038.09
2022-11-30T04:59:51.073Z,102028.66
2022-11-30T05:02:17.652Z,102036.38
2022-11-30T05:04:44.369Z,102038.09
2022-11-30T05:07:10.878Z,102034.63
2022-11-30T05:09:37.347Z,102038.09
2022-11-30T05:12:03.900Z,102039.84
2022-11-30T05:14:30.321Z,102035.50
2022-11-30T05:16:56.835Z,102030.31
2022-11-30T05:19:23.265Z,102040.63
2022-11-30T05:21:49.750Z,102043.22
2022-11-30T05:24:16.355Z,102033.75
2022-11-30T05:26:42.880Z,102044.97
2022-11-30T05:29:09.671Z,102037.19
2022-11-30T05:31:38.478Z,102044.94
2022-11-30T05:34:04.975Z,102051.81
2022-11-30T05:36:31.957Z,102052.69
2022-11-30T05:38:58.412Z,102050.06
2022-11-30T05:41:24.838Z,102052.66
2022-11-30T05:43:51.352Z,102046.63
2022-11-30T05:46:17.833Z,102051.81
2022-11-30T05:48:44.317Z,102050.94
2022-11-30T05:51:16.174Z,102055.22
2022-11-30T05:53:43.535Z,102051.81
2022-11-30T05:56:13.803Z,102055.28
2022-11-30T05:58:40.711Z,102047.50
2022-11-30T06:01:08.090Z,102052.66
2022-11-30T06:03:35.783Z,102056.97
2022-11-30T06:06:02.255Z,102063.84
2022-11-30T06:08:28.713Z,102065.59
2022-11-30T06:10:59.626Z,102063.91
2022-11-30T06:13:28.818Z,102061.28
2022-11-30T06:15:59.097Z,102058.72
2022-11-30T06:18:25.644Z,102062.19
2022-11-30T06:20:52.096Z,102059.63
2022-11-30T06:23:18.658Z,102053.63
2022-11-30T06:25:45.189Z,102062.19
2022-11-30T06:28:11.902Z,102060.50
2022-11-30T06:30:38.443Z,102059.63
2022-11-30T06:33:04.921Z,102065.63
2022-11-30T06:35:31.383Z,102053.63
2022-11-30T06:37:57.869Z,102058.75
2022-11-30T06:40:24.490Z,102060.50
2022-11-30T06:42:50.953Z,102065.66
2022-11-30T06:45:17.433Z,102064.78
2022-11-30T06:47:44.062Z,102065.66
2022-11-30T06:50:12.705Z,102067.34
2022-11-30T06:52:39.212Z,102068.22
2022-11-30T06:55:06.195Z,102063.88
2022-11-30T06:57:32.682Z,102072.44
2022-11-30T06:59:59.186Z,102069.03
2022-11-30T07:02:25.692Z,102074.22
2022-11-30T07:04:52.112Z,102078.53
2022-11-30T07:07:18.750Z,102070.78
2022-11-30T07:09:45.294Z,102075.94
2022-11-30T07:12:11.906Z,102073.38
2022-11-30T07:14:38.380Z,102074.25
2022-11-30T07:17:04.889Z,102074.25
2022-11-30T07:19:34.207Z,102076.81
2022-11-30T07:22:01.528Z,102079.38
2022-11-30T07:24:47.468Z,102079.38
2022-11-30T07:27:14.195Z,102089.69
2022-11-30T07:29:40.671Z,102089.66
2022-11-30T07:32:07.259Z,102086.22
2022-11-30T07:34:33.754Z,102088.81
2022-11-30T07:37:00.208Z,102093.06
2022-11-30T07:39:26.641Z,102091.34
2022-11-30T07:41:53.061Z,102101.63
2022-11-30T07:44:19.588Z,102103.34
2022-11-30T07:46:46.020Z,102105.09
2022-11-30T07:49:13.282Z,102100.78
2022-11-30T07:51:39.854Z,102114.56
2022-11-30T07:54:06.386Z,102117.25
2022-11-30T07:56:32.921Z,102103.50
2022-11-30T07:59:01.537Z,102115.56
2022-11-30T08:01:31.362Z,102115.56
2022-11-30T08:03:58.503Z,102119.06
2022-11-30T08:06:30.409Z,102125.06
2022-11-30T08:08:59.574Z,102123.38
2022-11-30T08:11:31.612Z,102130.25
2022-11-30T08:13:58.252Z,102125.97
2022-11-30T08:16:28.122Z,102125.09
2022-11-30T08:18:58.481Z,102125.09
2022-11-30T08:21:25.540Z,102124.22
2022-11-30T08:23:56.097Z,102122.47
2022-11-30T08:26:28.306Z,102130.16
2022-11-30T08:28:55.682Z,102128.44
2022-11-30T08:31:28.271Z,102131.03
2022-11-30T08:34:06.584Z,102143.94
2022-11-30T08:36:33.990Z,102144.84
2022-11-30T08:39:02.921Z,102147.44
2022-11-30T08:41:29.647Z,102147.44
2022-11-30T08:43:56.579Z,102159.53
2022-11-30T08:49:26.827Z,102162.16
2022-11-30T08:54:46.146Z,102162.19
2022-11-30T08:57:15.158Z,102170.78
2022-11-30T08:59:41.718Z,102169.09
2022-11-30T09:02:10.598Z,102169.97
2022-11-30T09:04:37.225Z,102167.38
2022-11-30T09:07:04.332Z,102175.13
2022-11-30T09:09:31.012Z,102175.09
2022-11-30T09:11:57.541Z,102178.56
2022-11-30T09:14:23.972Z,102178.56
2022-11-30T09:16:50.430Z,102167.34
2022-11-30T09:19:16.968Z,102181.97
2022-11-30T09:21:50.950Z,102167.34
2022-11-30T09:24:19.164Z,102178.50
2022-11-30T09:26:45.601Z,102179.38
2022-11-30T09:29:12.062Z,102175.91
2022-11-30T09:31:38.883Z,102172.47
2022-11-30T09:34:05.359Z,102175.88
2022-11-30T09:36:33.060Z,102180.16
2022-11-30T09:39:00.385Z,102178.44
2022-11-30T09:41:53.961Z,102179.34
2022-11-30T09:44:25.696Z,102178.47
2022-11-30T09:46:55.323Z,102174.19
2022-11-30T09:49:31.141Z,102172.47
2022-11-30T09:52:03.520Z,102175.91
2022-11-30T09:54:45.148Z,102174.19
2022-11-30T09:57:26.205Z,102169.88
2022-11-30T09:59:55.987Z,102172.47
2022-11-30T10:02:28.464Z,102172.50
2022-11-30T10:04:55.293Z,102167.28
2022-11-30T10:07:46.928Z,102174.19
2022-11-30T10:10:33.091Z,102168.16
2022-11-30T10:13:35.108Z,102170.75
2022-11-30T10:16:08.964Z,102164.72
2022-11-30T10:18:50.585Z,102164.69
2022-11-30T10:21:40.823Z,102159.53
2022-11-30T10:24:15.406Z,102156.97
2022-11-30T10:26:54.510Z,102163.88
2022-11-30T10:29:30.058Z,102165.59
2022-11-30T10:32:00.082Z,102162.13
2022-11-30T10:34:49.338Z,102156.94
2022-11-30T10:37:27.867Z,102171.53
2022-11-30T10:40:06.307Z,102163.81
2022-11-30T10:42:41.194Z,102162.06
2022-11-30T10:45:13.437Z,102158.66
2022-11-30T10:47:44.990Z,102162.94
2022-11-30T10:50:15.487Z,102161.22
2022-11-30T10:52:46.311Z,102162.09
2022-11-30T10:55:20.881Z,102162.94
2022-11-30T10:57:49.839Z,102162.09
2022-11-30T11:00:18.194Z,102165.56
2022-11-30T11:02:48.111Z,102155.25
2022-11-30T11:05:16.806Z,102161.25
2022-11-30T11:08:06.420Z,102157.81
2022-11-30T11:10:36.851Z,102156.06
2022-11-30T11:15:35.434Z,102158.66
2022-11-30T11:18:22.982Z,102156.91
2022-11-30T11:21:06.766Z,102157.78
2022-11-30T11:23:40.938Z,102157.78
2022-11-30T11:26:17.491Z,102157.75
2022-11-30T11:28:47.008Z,102162.03
2022-11-30T11:31:30.378Z,102157.72
2022-11-30T11:33:56.967Z,102160.31
2022-11-30T11:36:29.761Z,102162.03
2022-11-30T11:38:57.012Z,102159.41
2022-11-30T11:41:37.529Z,102161.19
2022-11-30T11:44:09.958Z,102162.03
2022-11-30T11:46:59.239Z,102163.75
2022-11-30T11:49:28.383Z,102167.19
2022-11-30T11:52:13.213Z,102174.09
2022-11-30T11:54:44.086Z,102171.50
2022-11-30T11:57:14.677Z,102169.78
2022-11-30T11:59:55.092Z,102158.56
2022-11-30T12:02:34.834Z,102161.13
2022-11-30T12:05:10.078Z,102170.59
2022-11-30T12:07:50.460Z,102173.19
2022-11-30T12:13:32.487Z,102167.19
2022-11-30T12:16:19.147Z,102165.44
2022-11-30T12:18:55.924Z,102168.03
2022-11-30T12:21:34.567Z,102165.44
2022-11-30T12:24:13.542Z,102167.22
2022-11-30T12:27:03.398Z,102158.56
2022-11-30T12:29:58.179Z,102162.00
2022-11-30T12:32:37.271Z,102164.56
2022-11-30T12:35:27.126Z,102162.88
2022-11-30T12:38:20.564Z,102161.13
2022-11-30T12:41:02.627Z,102164.53
2022-11-30T12:43:48.465Z,102167.13
2022-11-30T12:46:34.149Z,102175.78
2022-11-30T12:49:26.011Z,102170.59
2022-11-30T12:52:02.793Z,102171.47
2022-11-30T12:54:32.092Z,102172.31
2022-11-30T12:57:20.412Z,102180.94
2022-11-30T13:00:10.830Z,102174.91
2022-11-30T13:02:46.249Z,102179.25
2022-11-30T13:05:23.146Z,102176.66
2022-11-30T13:08:12.051Z,102178.34
2022-11-30T13:10:49.879Z,102180.09
2022-11-30T13:13:21.269Z,102180.94
2022-11-30T13:15:50.040Z,102171.47
2022-11-30T13:18:23.066Z,102179.19
2022-11-30T13:21:06.885Z,102175.75
2022-11-30T13:24:10.168Z,102174.03
2022-11-30T13:26:42.325Z,102181.81
2022-11-30T13:29:27.694Z,102177.50
2022-11-30T13:32:06.087Z,102185.25
2022-11-30T13:34:33.003Z,102180.97
2022-11-30T13:37:27.178Z,102177.50
2022-11-30T13:39:57.534Z,102180.09
2022-11-30T13:42:30.538Z,102178.38
2022-11-30T13:44:59.322Z,102180.09
2022-11-30T13:47:35.152Z,102178.38
2022-11-30T13:50:29.578Z,102178.34
2022-11-30T13:52:59.050Z,102179.22
2022-11-30T13:55:57.290Z,102179.19
2022-11-30T13:58:25.475Z,102179.19
2022-11-30T14:01:23.476Z,102180.09
2022-11-30T14:04:28.468Z,102184.41
2022-11-30T14:06:56.429Z,102180.13
2022-11-30T14:09:41.261Z,102194.75
2022-11-30T14:12:47.135Z,102177.59
2022-11-30T14:15:32.255Z,102185.28
2022-11-30T14:18:04.899Z,102189.59
2022-11-30T14:20:37.982Z,102185.31
2022-11-30T14:23:13.473Z,102191.31
2022-11-30T14:25:47.222Z,102187.84
2022-11-30T14:28:21.647Z,102190.44
2022-11-30T14:30:49.080Z,102191.28
2022-11-30T14:33:31.636Z,102210.25
2022-11-30T14:36:00.540Z,102196.50
2022-11-30T14:38:31.662Z,102201.66
2022-11-30T14:40:58.721Z,102203.34
2022-11-30T14:43:25.701Z,102193.00
2022-11-30T14:46:06.438Z,102201.63
2022-11-30T14:48:34.547Z,102204.22
2022-11-30T14:51:04.082Z,102202.50
2022-11-30T14:53:47.148Z,102205.94
2022-11-30T14:56:41.464Z,102199.94
2022-11-30T14:59:29.842Z,102210.25
2022-11-30T15:02:02.732Z,102204.22
2022-11-30T15:04:30.067Z,102204.22
2022-11-30T15:06:57.448Z,102201.66
2022-11-30T15:09:28.573Z,102195.66
2022-11-30T15:11:56.355Z,102199.94
2022-11-30T15:14:24.468Z,102199.94
2022-11-30T15:16:53.706Z,102201.66
2022-11-30T15:19:28.834Z,102197.34
2022-11-30T15:21:57.015Z,102206.78
2022-11-30T15:24:24.296Z,102205.94
2022-11-30T15:27:10.289Z,102213.69
2022-11-30T15:29:41.478Z,102215.41
2022-11-30T15:32:16.623Z,102213.69
2022-11-30T15:34:56.334Z,102212.00
2022-11-30T15:37:37.873Z,102224.91
2022-11-30T15:40:06.673Z,102212.00
2022-11-30T15:42:45.016Z,102216.25
2022-11-30T15:45:22.812Z,102224.03
2022-11-30T15:47:49.757Z,102234.38
2022-11-30T15:50:31.206Z,102237.81
2022-11-30T15:53:25.428Z,102236.94
2022-11-30T15:55:55.191Z,102237.81
2022-11-30T15:58:29.194Z,102235.22
2022-11-30T16:01:00.151Z,102235.22
2022-11-30T16:03:26.673Z,102238.69
2022-11-30T16:05:58.358Z,102237.84
2022-11-30T16:08:25.941Z,102238.69
2022-11-30T16:10:52.727Z,102233.53
2022-11-30T16:13:22.311Z,102233.50
2022-11-30T16:15:51.198Z,102250.72
2022-11-30T16:18:22.217Z,102246.41
2022-11-30T16:21:00.735Z,102244.69
2022-11-30T16:23:28.131Z,102249.00
2022-11-30T16:25:54.811Z,102243.84
2022-11-30T16:28:22.746Z,102253.34
2022-11-30T16:30:49.823Z,102254.22
2022-11-30T16:33:19.778Z,102247.31
2022-11-30T16:35:56.499Z,102238.72
2022-11-30T16:38:24.686Z,102246.44
2022-11-30T16:40:54.077Z,102248.16
2022-11-30T16:43:20.776Z,102249.03
2022-11-30T16:45:47.330Z,102251.59
2022-11-30T16:48:16.744Z,102255.03
2022-11-30T16:50:44.725Z,102256.75
2022-11-30T16:53:16.701Z,102252.47
2022-11-30T16:55:43.447Z,102261.94
2022-11-30T16:58:09.949Z,102261.97
2022-11-30T17:00:39.560Z,102261.09
2022-11-30T17:03:26.676Z,102260.22
2022-11-30T17:05:53.195Z,102272.25
2022-11-30T17:08:20.021Z,102269.69
2022-11-30T17:10:51.638Z,102274.00
2022-11-30T17:15:49.362Z,102268.84
2022-11-30T17:18:16.032Z,102274.88
2022-11-30T17:20:42.670Z,102278.31
2022-11-30T17:23:09.251Z,102274.88
2022-11-30T17:25:35.668Z,102276.59
2022-11-30T17:28:02.120Z,102271.41
2022-11-30T17:30:28.717Z,102280.91
2022-11-30T17:32:55.230Z,102280.91
2022-11-30T17:35:21.670Z,102280.88
2022-11-30T17:37:48.615Z,102274.00
2022-11-30T17:40:18.169Z,102278.31
2022-11-30T17:42:44.641Z,102275.72
2022-11-30T17:45:11.348Z,102283.47
2022-11-30T17:47:38.040Z,102287.78
2022-11-30T17:50:06.744Z,102288.66
2022-11-30T17:52:33.822Z,102289.50
2022-11-30T17:55:00.268Z,102293.81
2022-11-30T17:57:26.870Z,102298.09
2022-11-30T17:59:54.310Z,102299.84
2022-11-30T18:02:21.822Z,102303.28
2022-11-30T18:04:48.518Z,102304.13
2022-11-30T18:07:15.827Z,102309.28
2022-11-30T18:09:43.107Z,102307.56
2022-11-30T18:12:10.686Z,102312.75
2022-11-30T18:14:37.350Z,102313.56
2022-11-30T18:17:04.511Z,102310.16
2022-11-30T18:19:30.986Z,102319.63
2022-11-30T18:21:57.515Z,102312.72
2022-11-30T18:24:25.707Z,102310.16
2022-11-30T18:26:52.696Z,102310.16
2022-11-30T18:29:19.853Z,102314.44
2022-11-30T18:31:48.503Z,102323.06
2022-11-30T18:34:15.253Z,102319.63
2022-11-30T18:36:41.863Z,102318.75
2022-11-30T18:39:08.347Z,102319.63
2022-11-30T18:41:35.283Z,102327.34
2022-11-30T18:44:01.750Z,102321.34
2022-11-30T18:46:28.335Z,102324.78
2022-11-30T18:48:55.363Z,102320.47
2022-11-30T18:51:27.241Z,102322.19
2022-11-30T18:53:59.915Z,102325.66
2022-11-30T18:56:28.646Z,102323.91
2022-11-30T18:58:57.783Z,102326.50
2022-11-30T19:01:25.536Z,102320.47
2022-11-30T19:03:54.886Z,102317.03
2022-11-30T19:06:22.252Z,102327.34
2022-11-30T19:08:48.892Z,102323.94
2022-11-30T19:11:16.586Z,102334.22
2022-11-30T19:13:44.000Z,102330.78
2022-11-30T19:16:13.699Z,102334.25
2022-11-30T19:18:40.443Z,102335.94
2022-11-30T19:21:09.225Z,102332.53
2022-11-30T19:23:37.449Z,102337.66
2022-11-30T19:26:05.599Z,102341.97
2022-11-30T19:28:33.927Z,102341.97
2022-11-30T19:31:05.693Z,102340.25
2022-11-30T19:33:34.556Z,102341.13
2022-11-30T19:36:02.077Z,102349.72
2022-11-30T19:38:28.914Z,102350.56
2022-11-30T19:40:55.380Z,102351.44
2022-11-30T19:43:21.858Z,102357.47
2022-11-30T19:45:48.432Z,102356.59
2022-11-30T19:48:15.009Z,102352.28
2022-11-30T19:50:41.471Z,102352.31
2022-11-30T19:53:08.447Z,102349.72
2022-11-30T19:55:38.331Z,102351.44
2022-11-30T19:58:04.769Z,102351.44
2022-11-30T20:00:31.242Z,102357.44
2022-11-30T20:02:57.731Z,102356.59
2022-11-30T20:05:24.230Z,102357.47
2022-11-30T20:07:50.784Z,102355.72
2022-11-30T20:10:17.321Z,102349.72
2022-11-30T20:12:43.878Z,102367.75
2022-11-30T20:15:10.679Z,102360.06
2022-11-30T20:17:37.174Z,102360.91
2022-11-30T20:20:04.184Z,102354.88
2022-11-30T20:22:31.077Z,102361.75
2022-11-30T20:24:57.510Z,102367.78
2022-11-30T20:27:24.957Z,102366.91
2022-11-30T20:29:52.504Z,102367.78
2022-11-30T20:32:19.945Z,102367.78
2022-11-30T20:34:46.929Z,102369.50
2022-11-30T20:37:15.642Z,102369.50
2022-11-30T20:39:46.114Z,102375.50
2022-11-30T20:42:13.317Z,102374.66
2022-11-30T20:44:39.807Z,102374.66
2022-11-30T20:47:06.260Z,102377.22
2022-11-30T20:49:32.721Z,102378.09
2022-11-30T20:51:59.263Z,102370.34
2022-11-30T20:54:25.745Z,102375.53
2022-11-30T20:56:52.243Z,102366.94
2022-11-30T20:59:22.167Z,102366.06
2022-11-30T21:01:48.745Z,102363.47
2022-11-30T21:04:15.274Z,102365.19
2022-11-30T21:06:45.355Z,102367.78
2022-11-30T21:09:13.851Z,102366.94
2022-11-30T21:11:41.391Z,102372.09
2022-11-30T21:14:08.762Z,102373.81
2022-11-30T21:16:36.003Z,102376.38
2022-11-30T21:19:03.294Z,102377.22
2022-11-30T21:21:32.671Z,102381.53
2022-11-30T21:24:01.516Z,102375.50
2022-11-30T21:26:34.062Z,102377.25
2022-11-30T21:29:06.998Z,102378.13
2022-11-30T21:31:35.162Z,102372.97
2022-11-30T21:34:02.170Z,102370.38
2022-11-30T21:36:29.289Z,102382.41
2022-11-30T21:39:05.151Z,102374.66
2022-11-30T21:41:32.925Z,102377.25
2022-11-30T21:43:59.480Z,102378.97
2022-11-30T21:46:26.099Z,102384.13
2022-11-30T21:48:52.604Z,102370.38
2022-11-30T21:51:22.483Z,102385.88
2022-11-30T21:53:54.475Z,102381.56
2022-11-30T21:56:23.952Z,102378.97
2022-11-30T21:58:51.396Z,102378.97
2022-11-30T22:01:24.421Z,102377.25
2022-11-30T22:03:51.022Z,102375.53
2022-11-30T22:06:20.282Z,102373.81
2022-11-30T22:08:47.040Z,102370.38
2022-11-30T22:11:15.944Z,102378.13
2022-11-30T22:13:43.043Z,102377.25
2022-11-30T22:16:15.076Z,102376.41
2022-11-30T22:18:43.061Z,102381.53
2022-11-30T22:21:10.987Z,102372.09
2022-11-30T22:23:39.408Z,102368.66
2022-11-30T22:26:21.062Z,102370.38
2022-11-30T22:28:57.401Z,102372.94
2022-11-30T22:31:31.096Z,102365.22
2022-11-30T22:33:58.036Z,102366.94
2022-11-30T22:36:27.081Z,102370.38
2022-11-30T22:38:58.680Z,102368.66
2022-11-30T22:41:26.166Z,102373.81
2022-11-30T22:43:53.031Z,102375.53
2022-11-30T22:46:22.217Z,102368.66
2022-11-30T22:48:49.483Z,102372.09
2022-11-30T22:51:27.819Z,102372.94
2022-11-30T22:53:55.141Z,102383.25
2022-11-30T22:56:23.848Z,102372.94
2022-11-30T22:58:54.069Z,102374.66
2022-11-30T23:01:25.684Z,102375.50
2022-11-30T23:03:54.226Z,102370.38
2022-11-30T23:06:21.804Z,102370.31
2022-11-30T23:08:49.703Z,102374.63
2022-11-30T23:11:19.313Z,102373.75
2022-11-30T23:13:46.099Z,102378.97
2022-11-30T23:16:14.538Z,102375.50
2022-11-30T23:18:43.544Z,102378.97
2022-11-30T23:21:13.901Z,102378.09
2022-11-30T23:23:41.573Z,102373.81
2022-11-30T23:26:23.262Z,102378.91
2022-11-30T23:28:51.627Z,102385.81
2022-11-30T23:31:32.384Z,102388.41
2022-11-30T23:34:01.957Z,102382.41
2022-11-30T23:36:29.128Z,102380.66
2022-11-30T23:38:59.030Z,102382.41
2022-11-30T23:41:26.386Z,102377.19
2022-11-30T23:43:53.387Z,102386.66
2022-11-30T23:46:20.312Z,102376.34
2022-11-30T23:48:47.163Z,102382.41
2022-11-30T23:51:13.653Z,102381.53
2022-11-30T23:53:40.622Z,102389.22
2022-11-30T23:56:09.025Z,102384.91
2022-11-30T23:58:36.146Z,102385.81
